createdAt,value
2022-09-21T00:03:25.304Z,1.57
2022-09-21T00:08:18.550Z,1.73
2022-09-21T00:13:16.323Z,1.50
2022-09-21T00:18:11.788Z,1.70
2022-09-21T00:23:05.020Z,1.30
2022-09-21T00:27:58.300Z,1.40
2022-09-21T00:32:51.541Z,1.83
2022-09-21T00:37:46.252Z,1.20
2022-09-21T00:42:40.403Z,1.53
2022-09-21T00:47:37.955Z,1.43
2022-09-21T00:52:36.630Z,1.77
2022-09-21T00:57:35.513Z,1.70
2022-09-21T01:02:29.534Z,1.57
2022-09-21T01:07:28.816Z,1.77
2022-09-21T01:12:54.269Z,1.50
2022-09-21T01:17:57.499Z,1.60
2022-09-21T01:23:15.972Z,1.97
2022-09-21T01:28:29.316Z,2.00
2022-09-21T01:33:31.676Z,1.80
2022-09-21T01:38:29.875Z,1.70
2022-09-21T01:43:32.461Z,1.90
2022-09-21T01:48:27.515Z,1.90
2022-09-21T01:53:29.699Z,1.77
2022-09-21T01:58:33.216Z,1.97
2022-09-21T02:03:34.945Z,1.93
2022-09-21T02:08:32.090Z,2.00
2022-09-21T02:13:29.744Z,2.17
2022-09-21T02:18:41.408Z,4.43
2022-09-21T02:23:43.968Z,3.33
2022-09-21T02:28:48.710Z,3.13
2022-09-21T02:33:57.998Z,2.70
2022-09-21T02:39:05.127Z,3.07
2022-09-21T02:44:07.390Z,2.27
2022-09-21T02:49:08.664Z,2.33
2022-09-21T02:54:07.913Z,2.40
2022-09-21T02:59:05.713Z,2.33
2022-09-21T03:03:59.362Z,2.30
2022-09-21T03:08:54.254Z,2.00
2022-09-21T03:13:48.259Z,1.80
2022-09-21T03:18:44.389Z,2.07
2022-09-21T03:23:37.894Z,2.20
2022-09-21T03:28:32.561Z,2.13
2022-09-21T03:33:26.260Z,2.00
2022-09-21T03:38:21.587Z,2.00
2022-09-21T03:43:15.068Z,6.57
2022-09-21T03:48:11.550Z,2.87
2022-09-21T03:53:05.706Z,2.73
2022-09-21T03:57:58.994Z,2.30
2022-09-21T04:02:52.301Z,1.90
2022-09-21T04:07:47.320Z,2.30
2022-09-21T04:12:43.845Z,2.03
2022-09-21T04:17:37.087Z,2.20
2022-09-21T04:22:31.459Z,1.90
2022-09-21T04:27:26.143Z,2.23
2022-09-21T04:32:19.309Z,2.17
2022-09-21T04:37:12.724Z,2.20
2022-09-21T04:42:06.624Z,2.87
2022-09-21T04:47:01.284Z,2.63
2022-09-21T04:51:54.778Z,2.70
2022-09-21T04:56:48.050Z,2.17
2022-09-21T05:01:41.367Z,2.33
2022-09-21T05:06:36.133Z,2.60
2022-09-21T05:11:29.458Z,2.70
2022-09-21T05:16:22.707Z,2.10
2022-09-21T05:21:16.667Z,2.60
2022-09-21T05:26:11.295Z,2.87
2022-09-21T05:31:20.486Z,2.57
2022-09-21T05:36:38.302Z,3.20
2022-09-21T05:41:33.964Z,2.60
2022-09-21T05:46:39.655Z,3.10
2022-09-21T05:51:44.258Z,2.83
2022-09-21T05:56:54.878Z,2.57
2022-09-21T06:02:05.497Z,2.70
2022-09-21T06:06:58.762Z,2.70
2022-09-21T06:11:53.837Z,2.63
2022-09-21T06:16:47.103Z,2.47
2022-09-21T06:21:40.383Z,2.33
2022-09-21T06:26:33.909Z,2.57
2022-09-21T06:31:29.826Z,2.27
2022-09-21T06:36:23.595Z,2.40
2022-09-21T06:41:21.219Z,2.10
2022-09-21T06:46:14.929Z,1.77
2022-09-21T06:51:10.933Z,2.07
2022-09-21T06:56:06.520Z,2.30
2022-09-21T07:00:59.879Z,2.30
2022-09-21T07:05:53.282Z,1.70
2022-09-21T07:10:48.010Z,1.93
2022-09-21T07:15:41.299Z,1.73
2022-09-21T07:20:34.607Z,2.10
2022-09-21T07:25:27.941Z,1.80
2022-09-21T07:30:22.821Z,8.77
2022-09-21T07:35:17.533Z,2.57
2022-09-21T07:40:12.149Z,1.97
2022-09-21T07:45:06.274Z,1.87
2022-09-21T07:50:01.035Z,2.67
2022-09-21T07:54:54.366Z,2.13
2022-09-21T07:59:48.730Z,2.50
2022-09-21T08:04:41.966Z,4.83
2022-09-21T08:09:36.565Z,4.57
2022-09-21T08:14:29.847Z,3.17
2022-09-21T08:19:25.850Z,4.53
2022-09-21T08:24:19.790Z,1.73
2022-09-21T08:29:14.591Z,2.27
2022-09-21T08:34:07.917Z,1.70
2022-09-21T08:39:01.194Z,1.90
2022-09-21T08:43:59.895Z,3.80
2022-09-21T08:49:01.342Z,1.80
2022-09-21T08:53:59.501Z,1.90
2022-09-21T08:58:52.897Z,2.40
2022-09-21T09:04:25.360Z,2.87
2022-09-21T09:09:56.316Z,2.67
2022-09-21T09:15:16.411Z,2.10
2022-09-21T09:20:19.810Z,2.17
2022-09-21T09:25:22.497Z,1.37
2022-09-21T09:30:21.547Z,1.50
2022-09-21T09:35:28.476Z,2.80
2022-09-21T09:40:43.302Z,1.45
2022-09-21T09:45:54.700Z,1.63
2022-09-21T09:50:49.596Z,1.38
2022-09-21T09:55:47.975Z,1.30
2022-09-21T10:00:41.789Z,0.93
2022-09-21T10:05:38.282Z,0.90
2022-09-21T10:10:37.547Z,1.10
2022-09-21T10:15:31.173Z,0.90
2022-09-21T10:20:25.394Z,1.00
2022-09-21T10:25:21.263Z,0.98
2022-09-21T10:30:38.569Z,0.80
2022-09-21T10:35:31.940Z,0.85
2022-09-21T10:40:30.810Z,0.70
2022-09-21T10:45:29.127Z,0.75
2022-09-21T10:50:29.078Z,1.02
2022-09-21T10:55:25.224Z,0.80
2022-09-21T11:00:38.675Z,0.95
2022-09-21T11:05:39.161Z,0.60
2022-09-21T11:10:49.089Z,0.82
2022-09-21T11:15:52.814Z,0.75
2022-09-21T11:20:54.052Z,0.80
2022-09-21T11:26:00.495Z,0.60
2022-09-21T11:31:40.191Z,0.80
2022-09-21T11:36:47.872Z,1.13
2022-09-21T11:42:03.896Z,1.17
2022-09-21T11:47:18.836Z,1.00
2022-09-21T11:52:39.266Z,1.20
2022-09-21T11:57:44.663Z,1.20
2022-09-21T12:03:23.709Z,0.98
2022-09-21T12:08:45.564Z,1.30
2022-09-21T12:13:52.022Z,1.25
2022-09-21T12:18:59.224Z,0.80
2022-09-21T12:23:57.310Z,1.35
2022-09-21T12:28:56.382Z,0.77
2022-09-21T12:33:55.265Z,0.70
2022-09-21T12:39:00.365Z,0.65
2022-09-21T12:44:06.837Z,0.68
2022-09-21T12:49:13.108Z,0.50
2022-09-21T12:54:19.051Z,0.70
2022-09-21T12:59:36.509Z,0.68
2022-09-21T13:04:44.719Z,0.80
2022-09-21T13:09:43.185Z,0.80
2022-09-21T13:14:44.565Z,0.70
2022-09-21T13:19:39.419Z,0.77
2022-09-21T13:24:33.000Z,1.00
2022-09-21T13:29:34.217Z,0.80
2022-09-21T13:34:33.602Z,0.73
2022-09-21T13:39:28.817Z,0.75
2022-09-21T13:44:43.268Z,0.50
2022-09-21T13:49:54.836Z,0.77
2022-09-21T13:54:57.767Z,0.70
2022-09-21T14:00:33.425Z,0.47
2022-09-21T14:05:35.012Z,0.80
2022-09-21T14:10:33.045Z,0.60
2022-09-21T14:15:40.359Z,0.65
2022-09-21T14:20:39.568Z,0.55
2022-09-21T14:25:53.159Z,0.70
2022-09-21T14:30:58.960Z,0.47
2022-09-21T14:35:54.138Z,0.50
2022-09-21T14:40:52.384Z,0.60
2022-09-21T14:46:18.187Z,0.60
2022-09-21T14:51:23.903Z,0.70
2022-09-21T14:56:44.151Z,0.60
2022-09-21T15:01:41.469Z,0.40
2022-09-21T15:07:09.984Z,0.60
2022-09-21T15:12:16.543Z,0.55
2022-09-21T15:17:25.732Z,0.70
2022-09-21T15:22:21.745Z,0.40
2022-09-21T15:27:20.043Z,0.70
2022-09-21T15:32:31.442Z,0.47
2022-09-21T15:37:24.759Z,0.60
2022-09-21T15:42:23.539Z,0.60
2022-09-21T15:47:21.467Z,0.60
2022-09-21T15:52:25.096Z,0.73
2022-09-21T15:57:38.460Z,0.60
2022-09-21T16:02:40.324Z,0.40
2022-09-21T16:07:35.921Z,0.60
2022-09-21T16:12:45.986Z,0.52
2022-09-21T16:17:40.060Z,0.60
2022-09-21T16:22:42.199Z,0.47
2022-09-21T16:27:35.652Z,0.65
2022-09-21T16:32:33.469Z,0.50
2022-09-21T16:37:29.912Z,0.80
2022-09-21T16:42:27.914Z,0.82
2022-09-21T16:47:25.152Z,0.55
2022-09-21T16:52:19.859Z,0.60
2022-09-21T16:57:14.347Z,0.65
2022-09-21T17:02:08.592Z,0.70
2022-09-21T17:07:04.962Z,0.73
2022-09-21T17:12:01.604Z,0.60
2022-09-21T17:16:58.830Z,0.63
2022-09-21T17:21:52.322Z,0.70
2022-09-21T17:26:46.031Z,0.70
2022-09-21T17:31:41.167Z,0.60
2022-09-21T17:36:35.058Z,0.70
2022-09-21T17:41:39.808Z,0.70
2022-09-21T17:46:47.265Z,0.57
2022-09-21T17:51:58.805Z,0.70
2022-09-21T17:57:03.751Z,0.70
2022-09-21T18:02:00.207Z,1.30
2022-09-21T18:06:54.555Z,2.87
2022-09-21T18:12:48.566Z,2.00
2022-09-21T18:18:06.475Z,1.70
2022-09-21T18:23:11.869Z,1.77
2022-09-21T18:28:18.320Z,1.30
2022-09-21T18:33:25.568Z,1.67
2022-09-21T18:38:28.396Z,1.03
2022-09-21T18:43:41.791Z,1.60
2022-09-21T18:48:57.224Z,0.90
2022-09-21T18:53:55.844Z,0.90
2022-09-21T18:58:50.651Z,0.70
2022-09-21T19:03:46.549Z,0.60
2022-09-21T19:08:50.338Z,0.70
2022-09-21T19:13:57.284Z,0.67
2022-09-21T19:19:11.306Z,0.90
2022-09-21T19:24:19.688Z,0.70
2022-09-21T19:29:49.832Z,0.70
2022-09-21T19:34:45.511Z,0.70
2022-09-21T19:39:39.772Z,0.60
2022-09-21T19:44:54.221Z,0.63
2022-09-21T19:49:54.673Z,0.73
2022-09-21T19:55:06.627Z,0.70
2022-09-21T20:00:06.314Z,0.97
2022-09-21T20:05:09.323Z,0.80
2022-09-21T20:10:42.149Z,0.80
2022-09-21T20:15:42.805Z,0.67
2022-09-21T20:20:38.111Z,0.80
2022-09-21T20:25:38.379Z,1.00
2022-09-21T20:30:36.015Z,1.03
2022-09-21T20:35:31.694Z,0.90
2022-09-21T20:40:29.155Z,1.27
2022-09-21T20:45:23.773Z,1.00
2022-09-21T20:50:17.840Z,1.07
2022-09-21T20:55:15.102Z,0.83
2022-09-21T21:00:13.592Z,1.17
2022-09-21T21:05:10.365Z,1.07
2022-09-21T21:10:03.910Z,1.20
2022-09-21T21:14:59.135Z,0.83
2022-09-21T21:19:53.790Z,1.63
2022-09-21T21:24:47.208Z,1.20
2022-09-21T21:29:40.456Z,0.90
2022-09-21T21:34:33.725Z,1.10
2022-09-21T21:39:28.354Z,0.93
2022-09-21T21:44:21.579Z,1.23
2022-09-21T21:49:14.873Z,0.93
2022-09-21T21:54:08.494Z,1.00
2022-09-21T21:59:03.107Z,1.00
2022-09-21T22:03:58.932Z,1.30
2022-09-21T22:08:52.734Z,1.10
2022-09-21T22:13:47.050Z,1.40
2022-09-21T22:18:42.994Z,1.07
2022-09-21T22:23:36.902Z,1.10
2022-09-21T22:28:30.334Z,1.10
2022-09-21T22:33:23.680Z,1.30
2022-09-21T22:38:18.623Z,1.20
2022-09-21T22:43:11.872Z,1.00
2022-09-21T22:48:05.171Z,1.17
2022-09-21T22:52:58.359Z,1.20
2022-09-21T22:57:52.989Z,1.10
2022-09-21T23:02:46.323Z,1.40
2022-09-21T23:07:39.524Z,1.13
2022-09-21T23:12:33.117Z,1.37
2022-09-21T23:17:29.350Z,1.10
2022-09-21T23:22:22.678Z,1.10
2022-09-21T23:27:15.940Z,1.37
2022-09-21T23:32:09.147Z,1.13
2022-09-21T23:37:03.767Z,1.17
2022-09-21T23:41:57.029Z,1.00
2022-09-21T23:46:50.519Z,1.10
2022-09-21T23:51:43.945Z,1.00
2022-09-21T23:56:38.677Z,1.30
